createdAt,value
2019-06-20T00:00:14.943Z,18.90
2019-06-20T00:02:45.430Z,18.70
2019-06-20T00:05:15.874Z,18.70
2019-06-20T00:07:46.509Z,18.70
2019-06-20T00:10:17.239Z,18.70
2019-06-20T00:12:59.905Z,18.60
2019-06-20T00:15:19.955Z,18.50
2019-06-20T00:17:50.967Z,18.50
2019-06-20T00:20:21.550Z,18.50
2019-06-20T00:22:52.267Z,18.50
2019-06-20T00:25:22.811Z,18.60
2019-06-20T00:27:53.316Z,18.60
2019-06-20T00:30:23.806Z,18.50
2019-06-20T00:32:54.234Z,18.50
2019-06-20T00:35:24.536Z,18.60
2019-06-20T00:37:55.032Z,18.50
2019-06-20T00:40:25.402Z,18.50
2019-06-20T00:42:55.745Z,18.50
2019-06-20T00:45:26.511Z,18.50
2019-06-20T00:47:56.919Z,18.40
2019-06-20T00:50:28.680Z,18.40
2019-06-20T00:52:59.219Z,18.30
2019-06-20T00:55:29.874Z,18.30
2019-06-20T00:58:00.458Z,18.20
2019-06-20T01:00:31.110Z,18.20
2019-06-20T01:03:02.279Z,18.20
2019-06-20T01:05:32.742Z,18.20
2019-06-20T01:08:03.782Z,18.10
2019-06-20T01:10:34.572Z,18.10
2019-06-20T01:13:05.375Z,18.10
2019-06-20T01:15:35.986Z,18.10
2019-06-20T01:18:07.196Z,18.00
2019-06-20T01:20:37.677Z,18.00
2019-06-20T01:23:08.073Z,18.00
2019-06-20T01:25:40.358Z,17.80
2019-06-20T01:28:10.838Z,17.80
2019-06-20T01:30:41.831Z,17.80
2019-06-20T01:33:12.783Z,17.80
2019-06-20T01:35:44.182Z,17.80
2019-06-20T01:38:14.734Z,17.80
2019-06-20T01:40:46.437Z,17.80
2019-06-20T01:43:18.279Z,17.80
2019-06-20T01:45:49.103Z,17.80
2019-06-20T01:48:19.896Z,17.70
2019-06-20T01:50:50.312Z,17.70
2019-06-20T01:53:20.710Z,17.70
2019-06-20T01:55:51.240Z,17.70
2019-06-20T01:58:21.898Z,17.70
2019-06-20T02:00:52.446Z,17.70
2019-06-20T02:03:23.144Z,17.60
2019-06-20T02:05:53.656Z,17.50
2019-06-20T02:08:24.328Z,17.30
2019-06-20T02:10:55.310Z,17.20
2019-06-20T02:13:26.177Z,17.10
2019-06-20T02:15:56.843Z,17.10
2019-06-20T02:18:27.282Z,17.00
2019-06-20T02:21:02.905Z,17.00
2019-06-20T02:23:33.446Z,17.00
2019-06-20T02:26:04.160Z,17.00
2019-06-20T02:28:35.140Z,17.00
2019-06-20T02:31:05.721Z,17.00
2019-06-20T02:33:36.127Z,17.00
2019-06-20T02:36:06.911Z,17.00
2019-06-20T02:38:37.499Z,17.00
2019-06-20T02:41:08.483Z,17.00
2019-06-20T02:43:39.058Z,17.10
2019-06-20T02:46:09.850Z,17.20
2019-06-20T02:48:40.340Z,17.20
2019-06-20T02:51:10.795Z,17.30
2019-06-20T02:53:41.178Z,17.40
2019-06-20T02:56:11.598Z,17.30
2019-06-20T02:58:41.982Z,17.20
2019-06-20T03:01:12.507Z,17.20
2019-06-20T03:03:43.014Z,17.20
2019-06-20T03:06:13.386Z,17.20
2019-06-20T03:08:43.797Z,17.30
2019-06-20T03:11:14.312Z,17.40
2019-06-20T03:13:44.694Z,17.40
2019-06-20T03:16:15.220Z,17.40
2019-06-20T03:18:45.723Z,17.50
2019-06-20T03:21:16.218Z,17.60
2019-06-20T03:23:46.710Z,17.60
2019-06-20T03:26:17.214Z,17.60
2019-06-20T03:28:47.567Z,17.60
2019-06-20T03:31:18.140Z,17.70
2019-06-20T03:33:48.545Z,17.80
2019-06-20T03:36:18.926Z,17.90
2019-06-20T03:38:49.850Z,18.00
2019-06-20T03:41:20.482Z,18.00
2019-06-20T03:43:50.942Z,18.00
2019-06-20T03:46:21.531Z,18.10
2019-06-20T03:48:52.026Z,18.20
2019-06-20T03:51:22.578Z,18.20
2019-06-20T03:53:53.083Z,18.40
2019-06-20T03:56:23.673Z,18.50
2019-06-20T03:58:54.058Z,18.60
2019-06-20T04:01:24.761Z,18.80
2019-06-20T04:03:55.157Z,18.80
2019-06-20T04:06:25.640Z,18.70
2019-06-20T04:08:56.154Z,18.70
2019-06-20T04:11:26.579Z,18.60
2019-06-20T04:13:56.991Z,18.60
2019-06-20T04:16:27.402Z,18.60
2019-06-20T04:18:57.785Z,18.50
2019-06-20T04:21:28.686Z,18.60
2019-06-20T04:23:59.190Z,18.70
2019-06-20T04:26:29.778Z,18.70
2019-06-20T04:29:00.212Z,18.90
2019-06-20T04:31:30.608Z,19.00
2019-06-20T04:34:00.995Z,19.10
2019-06-20T04:36:31.515Z,19.20
2019-06-20T04:39:15.626Z,19.30
2019-06-20T04:41:34.142Z,19.30
2019-06-20T04:44:04.810Z,19.40
2019-06-20T04:46:44.577Z,19.30
2019-06-20T04:49:15.223Z,19.20
2019-06-20T04:51:45.618Z,19.20
2019-06-20T04:54:16.150Z,19.20
2019-06-20T04:56:48.698Z,19.20
2019-06-20T04:59:19.155Z,19.20
2019-06-20T05:01:49.564Z,19.20
2019-06-20T05:04:20.070Z,19.30
2019-06-20T05:06:54.587Z,19.30
2019-06-20T05:09:25.054Z,19.30
2019-06-20T05:11:55.422Z,19.50
2019-06-20T05:14:25.854Z,19.60
2019-06-20T05:16:56.368Z,19.60
2019-06-20T05:19:26.747Z,19.60
2019-06-20T05:21:57.293Z,19.70
2019-06-20T05:24:27.814Z,19.80
2019-06-20T05:26:59.714Z,19.80
2019-06-20T05:29:30.134Z,19.90
2019-06-20T05:32:00.732Z,20.00
2019-06-20T05:34:31.810Z,20.10
2019-06-20T05:37:02.295Z,20.20
2019-06-20T05:39:32.990Z,20.30
2019-06-20T05:42:03.558Z,20.40
2019-06-20T05:44:33.962Z,20.60
2019-06-20T05:47:12.359Z,20.60
2019-06-20T05:49:37.211Z,20.60
2019-06-20T05:52:07.669Z,20.70
2019-06-20T05:54:38.735Z,20.90
2019-06-20T05:57:09.378Z,21.00
2019-06-20T05:59:39.775Z,21.20
2019-06-20T06:02:10.227Z,21.30
2019-06-20T06:04:40.634Z,21.50
2019-06-20T06:07:14.146Z,21.70
2019-06-20T06:09:43.331Z,21.80
2019-06-20T06:12:13.743Z,21.90
2019-06-20T06:14:44.502Z,22.00
2019-06-20T06:17:14.889Z,22.10
2019-06-20T06:19:45.374Z,22.30
2019-06-20T06:22:15.850Z,22.40
2019-06-20T06:24:46.346Z,22.40
2019-06-20T06:27:16.826Z,22.70
2019-06-20T06:29:47.398Z,22.90
2019-06-20T06:32:20.195Z,23.10
2019-06-20T06:34:50.203Z,23.20
2019-06-20T06:37:20.678Z,23.20
2019-06-20T06:39:51.088Z,23.40
2019-06-20T06:42:22.875Z,23.40
2019-06-20T06:44:53.318Z,23.50
2019-06-20T06:47:23.845Z,23.60
2019-06-20T06:49:54.255Z,23.70
2019-06-20T06:52:24.665Z,23.70
2019-06-20T06:54:55.326Z,23.70
2019-06-20T06:57:25.802Z,23.80
2019-06-20T06:59:56.302Z,23.90
2019-06-20T07:02:26.757Z,24.30
2019-06-20T07:04:57.234Z,24.60
2019-06-20T07:07:27.642Z,24.90
2019-06-20T07:09:58.143Z,25.20
2019-06-20T07:12:28.743Z,25.40
2019-06-20T07:14:59.327Z,25.70
2019-06-20T07:17:29.810Z,25.80
2019-06-20T07:20:00.427Z,25.80
2019-06-20T07:22:31.342Z,25.90
2019-06-20T07:25:01.850Z,26.10
2019-06-20T07:27:32.266Z,26.30
2019-06-20T07:30:02.695Z,26.20
2019-06-20T07:32:33.099Z,26.30
2019-06-20T07:35:03.744Z,26.30
2019-06-20T07:37:34.347Z,26.30
2019-06-20T07:40:07.786Z,26.20
2019-06-20T07:42:38.241Z,26.20
2019-06-20T07:45:09.525Z,26.00
2019-06-20T07:47:40.323Z,26.00
2019-06-20T07:50:10.973Z,26.00
2019-06-20T07:52:41.450Z,26.10
2019-06-20T07:55:13.242Z,26.40
2019-06-20T07:57:43.666Z,26.60
2019-06-20T08:00:15.687Z,26.70
2019-06-20T08:02:46.205Z,26.70
2019-06-20T08:05:18.423Z,26.40
2019-06-20T08:07:49.123Z,26.10
2019-06-20T08:10:20.558Z,26.00
2019-06-20T08:12:51.038Z,25.90
2019-06-20T08:15:21.892Z,25.80
2019-06-20T08:17:52.448Z,25.70
2019-06-20T08:20:23.200Z,25.50
2019-06-20T08:22:53.600Z,25.40
2019-06-20T08:25:24.318Z,25.20
2019-06-20T08:27:57.098Z,25.00
2019-06-20T08:30:30.828Z,25.00
2019-06-20T08:33:04.376Z,24.90
2019-06-20T08:35:33.910Z,24.80
2019-06-20T08:38:06.117Z,24.70
2019-06-20T08:40:40.652Z,24.50
2019-06-20T08:43:11.254Z,24.40
2019-06-20T08:45:43.450Z,24.30
2019-06-20T08:48:13.765Z,24.10
2019-06-20T08:50:44.077Z,24.00
2019-06-20T08:53:14.661Z,24.00
2019-06-20T08:55:44.985Z,23.90
2019-06-20T08:58:15.503Z,23.90
2019-06-20T09:00:45.902Z,23.90
2019-06-20T09:03:16.374Z,23.90
2019-06-20T09:05:46.842Z,23.80
2019-06-20T09:08:17.182Z,23.80
2019-06-20T09:10:47.662Z,23.90
2019-06-20T09:13:18.057Z,23.90
2019-06-20T09:15:48.669Z,23.80
2019-06-20T09:18:19.088Z,23.90
2019-06-20T09:20:49.906Z,24.00
2019-06-20T09:23:20.334Z,24.10
2019-06-20T09:25:51.146Z,24.30
2019-06-20T09:28:22.755Z,24.30
2019-06-20T09:30:53.934Z,24.30
2019-06-20T09:33:26.131Z,24.40
2019-06-20T09:35:57.493Z,24.50
2019-06-20T09:38:28.004Z,24.60
2019-06-20T09:40:59.212Z,24.50
2019-06-20T09:43:29.640Z,24.50
2019-06-20T09:46:00.197Z,24.60
2019-06-20T09:48:30.724Z,24.90
2019-06-20T09:51:01.408Z,25.10
2019-06-20T09:53:32.116Z,25.10
2019-06-20T09:56:02.502Z,25.20
2019-06-20T09:58:33.010Z,25.20
2019-06-20T10:01:03.444Z,25.30
2019-06-20T10:03:33.818Z,25.30
2019-06-20T10:06:13.461Z,25.20
2019-06-20T10:08:36.310Z,25.10
2019-06-20T10:11:06.959Z,25.00
2019-06-20T10:13:37.366Z,25.10
2019-06-20T10:16:07.890Z,25.10
2019-06-20T10:18:38.437Z,25.20
2019-06-20T10:21:09.322Z,25.40
2019-06-20T10:23:39.725Z,25.40
2019-06-20T10:26:10.279Z,25.40
2019-06-20T10:28:40.772Z,25.30
2019-06-20T10:31:11.366Z,25.40
2019-06-20T10:33:41.986Z,25.40
2019-06-20T10:36:12.456Z,25.50
2019-06-20T10:38:43.697Z,25.60
2019-06-20T10:41:14.912Z,25.80
2019-06-20T10:43:45.852Z,25.90
2019-06-20T10:46:16.631Z,25.80
2019-06-20T10:48:47.985Z,26.00
2019-06-20T10:51:39.469Z,26.10
2019-06-20T10:54:09.857Z,26.20
2019-06-20T10:56:40.476Z,26.20
2019-06-20T10:59:12.587Z,26.20
2019-06-20T11:01:44.290Z,26.30
2019-06-20T11:04:14.774Z,26.30
2019-06-20T11:06:45.612Z,26.30
2019-06-20T11:09:16.210Z,26.20
2019-06-20T11:11:47.093Z,26.30
2019-06-20T11:14:17.672Z,26.30
2019-06-20T11:16:49.296Z,26.00
2019-06-20T11:19:20.085Z,25.90
2019-06-20T11:21:50.744Z,26.00
2019-06-20T11:24:21.275Z,26.00
2019-06-20T11:26:51.726Z,26.10
2019-06-20T11:29:22.113Z,26.10
2019-06-20T11:31:52.607Z,26.10
2019-06-20T11:34:22.986Z,26.00
2019-06-20T11:36:53.478Z,26.10
2019-06-20T11:39:23.914Z,26.20
2019-06-20T11:41:54.322Z,26.20
2019-06-20T11:44:24.832Z,26.20
2019-06-20T11:46:55.222Z,26.20
2019-06-20T11:49:25.798Z,26.20
2019-06-20T11:51:56.094Z,26.20
2019-06-20T11:54:26.510Z,26.20
2019-06-20T11:56:56.882Z,26.20
2019-06-20T11:59:27.455Z,26.20
2019-06-20T12:01:57.926Z,26.20
2019-06-20T12:04:28.379Z,26.30
2019-06-20T12:06:59.070Z,26.30
2019-06-20T12:09:30.037Z,26.40
2019-06-20T12:12:00.835Z,26.50
2019-06-20T12:14:31.307Z,26.40
2019-06-20T12:17:01.809Z,26.50
2019-06-20T12:19:32.174Z,26.50
2019-06-20T12:22:02.795Z,26.60
2019-06-20T12:24:33.279Z,26.60
2019-06-20T12:27:03.764Z,26.70
2019-06-20T12:29:34.331Z,26.70
2019-06-20T12:32:04.723Z,26.80
2019-06-20T12:34:35.161Z,26.80
2019-06-20T12:37:06.073Z,26.80
2019-06-20T12:39:38.621Z,27.00
2019-06-20T12:42:08.621Z,27.00
2019-06-20T12:44:40.083Z,27.10
2019-06-20T12:47:10.710Z,27.10
2019-06-20T12:49:41.807Z,27.30
2019-06-20T12:52:12.320Z,27.40
2019-06-20T12:54:43.301Z,27.50
2019-06-20T12:57:13.734Z,27.60
2019-06-20T12:59:44.594Z,27.70
2019-06-20T13:02:15.498Z,27.60
2019-06-20T13:04:46.477Z,27.60
2019-06-20T13:07:16.791Z,27.60
2019-06-20T13:09:48.321Z,27.60
2019-06-20T13:12:18.770Z,27.50
2019-06-20T13:14:49.644Z,27.50
2019-06-20T13:17:20.094Z,27.60
2019-06-20T13:19:50.570Z,27.70
2019-06-20T13:22:21.079Z,27.80
2019-06-20T13:24:51.627Z,27.80
2019-06-20T13:27:22.206Z,27.80
2019-06-20T13:29:53.039Z,27.80
2019-06-20T13:32:23.422Z,27.60
2019-06-20T13:34:53.950Z,27.50
2019-06-20T13:37:24.326Z,27.40
2019-06-20T13:39:54.837Z,27.40
2019-06-20T13:42:25.422Z,27.40
2019-06-20T13:44:55.822Z,27.40
2019-06-20T13:47:26.275Z,27.50
2019-06-20T13:49:56.718Z,27.70
2019-06-20T13:52:27.179Z,27.80
2019-06-20T13:54:57.563Z,27.80
2019-06-20T13:57:28.014Z,27.80
2019-06-20T13:59:58.441Z,27.70
2019-06-20T14:02:28.876Z,27.70
2019-06-20T14:04:59.274Z,27.60
2019-06-20T14:07:29.654Z,27.60
2019-06-20T14:10:00.183Z,27.60
2019-06-20T14:12:30.630Z,27.60
2019-06-20T14:15:01.122Z,27.70
2019-06-20T14:17:31.562Z,27.70
2019-06-20T14:20:02.128Z,27.60
2019-06-20T14:22:32.698Z,27.50
2019-06-20T14:25:03.489Z,27.60
2019-06-20T14:27:35.111Z,27.60
2019-06-20T14:30:07.197Z,27.50
2019-06-20T14:32:37.595Z,27.50
2019-06-20T14:35:08.410Z,27.40
2019-06-20T14:37:38.830Z,27.50
2019-06-20T14:40:10.220Z,27.60
2019-06-20T14:42:40.634Z,27.50
2019-06-20T14:45:11.113Z,27.40
2019-06-20T14:47:41.536Z,27.30
2019-06-20T14:50:14.036Z,27.20
2019-06-20T14:52:46.152Z,27.20
2019-06-20T14:55:18.482Z,27.30
2019-06-20T14:57:50.471Z,27.20
2019-06-20T15:00:22.208Z,27.20
2019-06-20T15:02:57.652Z,27.20
2019-06-20T15:05:24.636Z,27.30
2019-06-20T15:07:55.835Z,27.20
2019-06-20T15:10:26.618Z,27.30
2019-06-20T15:12:57.643Z,27.30
2019-06-20T15:15:31.446Z,27.20
2019-06-20T15:18:00.765Z,27.20
2019-06-20T15:20:31.250Z,27.20
2019-06-20T15:23:03.041Z,27.20
2019-06-20T15:25:34.078Z,27.30
2019-06-20T15:28:04.490Z,27.30
2019-06-20T15:30:34.870Z,27.10
2019-06-20T15:33:10.082Z,27.10
2019-06-20T15:35:37.372Z,27.10
2019-06-20T15:38:09.334Z,27.10
2019-06-20T15:40:41.525Z,27.10
2019-06-20T15:43:11.913Z,27.10
2019-06-20T15:45:42.307Z,27.00
2019-06-20T15:48:12.854Z,27.10
2019-06-20T15:50:43.429Z,27.00
2019-06-20T15:53:13.887Z,27.00
2019-06-20T15:55:44.383Z,27.00
2019-06-20T15:58:14.958Z,27.00
2019-06-20T16:00:45.425Z,26.90
2019-06-20T16:03:16.229Z,26.90
2019-06-20T16:05:47.014Z,26.90
2019-06-20T16:08:17.546Z,26.80
2019-06-20T16:10:48.107Z,26.80
2019-06-20T16:13:18.510Z,26.70
2019-06-20T16:15:49.002Z,26.60
2019-06-20T16:18:19.487Z,26.30
2019-06-20T16:20:50.088Z,26.00
2019-06-20T16:23:20.549Z,25.70
2019-06-20T16:25:50.997Z,25.60
2019-06-20T16:28:21.883Z,25.50
2019-06-20T16:31:05.214Z,25.30
2019-06-20T16:33:25.747Z,25.20
2019-06-20T16:35:56.336Z,25.10
2019-06-20T16:38:26.765Z,25.10
2019-06-20T16:40:57.193Z,25.10
2019-06-20T16:43:27.606Z,25.20
2019-06-20T16:45:58.135Z,25.20
2019-06-20T16:48:28.631Z,25.10
2019-06-20T16:50:59.178Z,25.10
2019-06-20T16:53:29.600Z,25.00
2019-06-20T16:56:00.178Z,24.90
2019-06-20T16:58:30.570Z,24.90
2019-06-20T17:01:01.455Z,24.90
2019-06-20T17:03:41.302Z,24.80
2019-06-20T17:06:04.194Z,24.80
2019-06-20T17:08:34.623Z,24.80
2019-06-20T17:11:05.380Z,24.80
2019-06-20T17:13:38.125Z,24.80
2019-06-20T17:16:08.577Z,24.80
2019-06-20T17:18:39.049Z,24.90
2019-06-20T17:21:09.549Z,24.90
2019-06-20T17:23:39.946Z,25.00
2019-06-20T17:26:10.339Z,25.00
2019-06-20T17:28:40.927Z,25.00
2019-06-20T17:31:11.350Z,24.90
2019-06-20T17:33:56.796Z,24.70
2019-06-20T17:36:18.166Z,24.60
2019-06-20T17:38:46.144Z,24.50
2019-06-20T17:41:16.797Z,24.50
2019-06-20T17:43:47.379Z,24.40
2019-06-20T17:46:17.807Z,24.30
2019-06-20T17:48:48.190Z,24.20
2019-06-20T17:51:18.623Z,24.10
2019-06-20T17:53:49.745Z,24.00
2019-06-20T17:56:20.334Z,24.00
2019-06-20T17:58:50.636Z,24.00
2019-06-20T18:01:21.090Z,24.10
2019-06-20T18:03:52.341Z,24.10
2019-06-20T18:06:22.833Z,24.00
2019-06-20T18:08:53.209Z,24.00
2019-06-20T18:11:23.746Z,23.90
2019-06-20T18:13:54.153Z,23.90
2019-06-20T18:16:25.560Z,23.90
2019-06-20T18:18:56.087Z,23.90
2019-06-20T18:21:26.578Z,23.70
2019-06-20T18:23:57.007Z,23.60
2019-06-20T18:26:27.385Z,23.70
2019-06-20T18:28:57.991Z,23.60
2019-06-20T18:31:28.909Z,23.60
2019-06-20T18:33:59.361Z,23.60
2019-06-20T18:36:29.791Z,23.60
2019-06-20T18:39:00.382Z,23.60
2019-06-20T18:41:30.950Z,23.60
2019-06-20T18:44:01.338Z,23.60
2019-06-20T18:46:31.654Z,23.50
2019-06-20T18:49:02.141Z,23.40
2019-06-20T18:51:32.680Z,23.30
2019-06-20T18:54:03.067Z,23.20
2019-06-20T18:56:33.771Z,23.20
2019-06-20T18:59:04.243Z,23.20
2019-06-20T19:01:34.764Z,23.10
2019-06-20T19:04:05.236Z,23.10
2019-06-20T19:06:36.501Z,23.00
2019-06-20T19:09:09.243Z,23.00
2019-06-20T19:11:39.606Z,23.00
2019-06-20T19:14:12.620Z,22.90
2019-06-20T19:16:42.122Z,22.90
2019-06-20T19:19:12.942Z,22.80
2019-06-20T19:21:43.370Z,22.70
2019-06-20T19:24:13.754Z,22.70
2019-06-20T19:26:44.318Z,22.60
2019-06-20T19:29:14.757Z,22.60
2019-06-20T19:31:45.194Z,22.50
2019-06-20T19:34:15.579Z,22.50
2019-06-20T19:36:46.086Z,22.30
2019-06-20T19:39:16.587Z,22.30
2019-06-20T19:41:47.002Z,22.20
2019-06-20T19:44:17.395Z,22.10
2019-06-20T19:46:48.375Z,22.10
2019-06-20T19:49:18.775Z,22.00
2019-06-20T19:51:49.385Z,21.80
2019-06-20T19:54:19.775Z,21.70
2019-06-20T19:56:50.245Z,21.70
2019-06-20T19:59:20.716Z,21.60
2019-06-20T20:01:51.298Z,21.50
2019-06-20T20:04:21.736Z,21.40
2019-06-20T20:06:52.194Z,21.40
2019-06-20T20:09:22.774Z,21.40
2019-06-20T20:11:53.363Z,21.40
2019-06-20T20:14:23.996Z,21.40
2019-06-20T20:16:54.370Z,21.40
2019-06-20T20:19:24.774Z,21.40
2019-06-20T20:21:55.286Z,21.40
2019-06-20T20:24:26.050Z,21.40
2019-06-20T20:26:57.089Z,21.40
2019-06-20T20:29:27.507Z,21.40
2019-06-20T20:31:58.086Z,21.30
2019-06-20T20:34:28.575Z,21.30
2019-06-20T20:36:59.074Z,21.20
2019-06-20T20:39:29.566Z,21.10
2019-06-20T20:42:00.082Z,21.10
2019-06-20T20:44:30.678Z,21.10
2019-06-20T20:47:01.186Z,21.10
2019-06-20T20:49:31.647Z,21.00
2019-06-20T20:52:02.074Z,21.00
2019-06-20T20:54:32.636Z,21.00
2019-06-20T20:57:03.511Z,21.00
2019-06-20T20:59:34.143Z,21.00
2019-06-20T21:02:04.750Z,21.00
2019-06-20T21:04:35.722Z,21.00
2019-06-20T21:07:06.162Z,21.00
2019-06-20T21:09:36.561Z,20.90
2019-06-20T21:12:07.710Z,20.90
2019-06-20T21:14:38.018Z,20.80
2019-06-20T21:17:08.512Z,20.80
2019-06-20T21:19:38.981Z,20.80
2019-06-20T21:22:12.527Z,20.70
2019-06-20T21:24:42.989Z,20.60
2019-06-20T21:27:13.604Z,20.60
2019-06-20T21:29:44.093Z,20.60
2019-06-20T21:32:14.546Z,20.50
2019-06-20T21:34:45.046Z,20.50
2019-06-20T21:37:15.349Z,20.50
2019-06-20T21:39:45.876Z,20.40
2019-06-20T21:42:16.246Z,20.30
2019-06-20T21:44:46.769Z,20.30
2019-06-20T21:47:17.338Z,20.30
2019-06-20T21:49:47.734Z,20.20
2019-06-20T21:52:18.246Z,20.10
2019-06-20T21:54:48.750Z,20.00
2019-06-20T21:57:19.274Z,20.00
2019-06-20T21:59:49.898Z,19.90
2019-06-20T22:02:20.563Z,19.90
2019-06-20T22:04:54.810Z,19.80
2019-06-20T22:07:23.069Z,19.80
2019-06-20T22:09:53.462Z,19.80
2019-06-20T22:12:23.857Z,19.70
2019-06-20T22:14:54.161Z,19.60
2019-06-20T22:17:24.664Z,19.60
2019-06-20T22:19:55.046Z,19.60
2019-06-20T22:22:25.474Z,19.60
2019-06-20T22:24:55.873Z,19.60
2019-06-20T22:27:26.278Z,19.50
2019-06-20T22:29:56.706Z,19.50
2019-06-20T22:32:27.166Z,19.50
2019-06-20T22:34:57.652Z,19.50
2019-06-20T22:37:28.048Z,19.40
2019-06-20T22:39:59.046Z,19.40
2019-06-20T22:42:29.465Z,19.40
2019-06-20T22:44:59.993Z,19.40
2019-06-20T22:47:30.350Z,19.30
2019-06-20T22:50:00.755Z,19.30
2019-06-20T22:52:31.251Z,19.20
2019-06-20T22:55:01.779Z,19.20
2019-06-20T22:57:32.250Z,19.20
2019-06-20T23:00:02.578Z,19.10
2019-06-20T23:02:32.980Z,19.10
2019-06-20T23:05:03.445Z,19.10
2019-06-20T23:07:33.830Z,19.10
2019-06-20T23:10:10.668Z,19.10
2019-06-20T23:12:37.134Z,19.10
2019-06-20T23:15:08.639Z,19.10
2019-06-20T23:17:39.048Z,19.00
2019-06-20T23:20:10.545Z,19.00
2019-06-20T23:22:40.918Z,18.90
2019-06-20T23:25:12.230Z,18.90
2019-06-20T23:27:43.214Z,18.80
2019-06-20T23:30:14.382Z,18.80
2019-06-20T23:32:44.802Z,18.80
2019-06-20T23:35:15.286Z,18.90
2019-06-20T23:37:45.662Z,18.90
2019-06-20T23:40:17.594Z,18.80
2019-06-20T23:42:48.166Z,18.90
2019-06-20T23:45:19.033Z,18.80
2019-06-20T23:47:49.435Z,18.80
2019-06-20T23:50:20.214Z,18.80
2019-06-20T23:52:58.997Z,18.70
2019-06-20T23:55:29.461Z,18.70
2019-06-20T23:57:59.871Z,18.70
